createdAt,value
2022-09-10T00:00:00.876Z,18.94
2022-09-10T00:02:32.065Z,18.89
2022-09-10T00:05:00.393Z,18.97
2022-09-10T00:07:28.146Z,19.05
2022-09-10T00:09:55.801Z,19.08
2022-09-10T00:12:23.444Z,19.12
2022-09-10T00:14:52.324Z,19.20
2022-09-10T00:17:19.968Z,19.21
2022-09-10T00:19:48.971Z,19.19
2022-09-10T00:22:16.772Z,19.23
2022-09-10T00:24:44.403Z,19.19
2022-09-10T00:27:12.045Z,19.23
2022-09-10T00:29:39.700Z,19.24
2022-09-10T00:32:07.582Z,19.19
2022-09-10T00:34:35.263Z,19.21
2022-09-10T00:37:04.279Z,19.21
2022-09-10T00:39:31.957Z,19.14
2022-09-10T00:41:59.610Z,19.11
2022-09-10T00:45:03.024Z,19.12
2022-09-10T00:47:34.077Z,19.08
2022-09-10T00:50:05.665Z,19.00
2022-09-10T00:52:39.422Z,19.00
2022-09-10T00:55:08.717Z,18.87
2022-09-10T00:57:36.527Z,18.89
2022-09-10T01:00:08.373Z,18.78
2022-09-10T01:02:36.063Z,18.83
2022-09-10T01:05:05.044Z,18.90
2022-09-10T01:07:34.742Z,18.91
2022-09-10T01:10:04.922Z,18.97
2022-09-10T01:13:04.952Z,18.95
2022-09-10T01:15:38.061Z,18.92
2022-09-10T01:18:14.836Z,18.88
2022-09-10T01:21:02.328Z,18.88
2022-09-10T01:23:57.363Z,18.89
2022-09-10T01:26:50.652Z,18.92
2022-09-10T01:29:24.815Z,18.91
2022-09-10T01:31:55.196Z,18.87
2022-09-10T01:34:29.639Z,18.91
2022-09-10T01:37:00.807Z,18.88
2022-09-10T01:39:30.378Z,18.91
2022-09-10T01:41:58.716Z,18.91
2022-09-10T01:44:47.071Z,18.92
2022-09-10T01:47:28.479Z,18.92
2022-09-10T01:50:06.040Z,18.87
2022-09-10T01:52:42.107Z,18.65
2022-09-10T01:55:18.056Z,18.62
2022-09-10T01:57:52.860Z,18.47
2022-09-10T02:00:22.852Z,18.15
2022-09-10T02:02:54.677Z,18.34
2022-09-10T02:05:24.199Z,18.50
2022-09-10T02:07:55.000Z,18.66
2022-09-10T02:10:23.603Z,18.61
2022-09-10T02:12:51.253Z,18.69
2022-09-10T02:15:19.664Z,18.68
2022-09-10T02:17:50.055Z,18.59
2022-09-10T02:20:19.684Z,18.57
2022-09-10T02:22:49.709Z,18.68
2022-09-10T02:25:17.568Z,18.68
2022-09-10T02:27:45.496Z,18.61
2022-09-10T02:30:13.645Z,18.44
2022-09-10T02:32:41.301Z,18.37
2022-09-10T02:35:10.598Z,18.56
2022-09-10T02:37:38.468Z,18.54
2022-09-10T02:40:07.326Z,18.29
2022-09-10T02:42:35.019Z,18.33
2022-09-10T02:45:02.674Z,18.53
2022-09-10T02:47:30.318Z,18.63
2022-09-10T02:49:57.980Z,18.48
2022-09-10T02:52:26.975Z,18.48
2022-09-10T02:54:54.627Z,18.65
2022-09-10T02:57:22.284Z,18.62
2022-09-10T02:59:49.916Z,18.23
2022-09-10T03:02:17.590Z,18.32
2022-09-10T03:04:45.224Z,17.98
2022-09-10T03:07:16.929Z,18.29
2022-09-10T03:09:45.901Z,18.03
2022-09-10T03:12:15.697Z,17.74
2022-09-10T03:14:43.432Z,17.89
2022-09-10T03:17:11.400Z,17.91
2022-09-10T03:19:39.938Z,18.16
2022-09-10T03:22:07.608Z,18.04
2022-09-10T03:24:35.272Z,18.26
2022-09-10T03:27:04.739Z,18.30
2022-09-10T03:29:32.376Z,18.40
2022-09-10T03:32:02.979Z,18.52
2022-09-10T03:34:30.629Z,18.58
2022-09-10T03:36:58.263Z,18.47
2022-09-10T03:39:25.901Z,18.48
2022-09-10T03:41:53.548Z,18.53
2022-09-10T03:44:22.529Z,18.52
2022-09-10T03:46:51.158Z,18.52
2022-09-10T03:49:18.814Z,18.60
2022-09-10T03:51:48.054Z,18.60
2022-09-10T03:54:15.797Z,18.59
2022-09-10T03:56:43.840Z,18.58
2022-09-10T03:59:13.216Z,18.56
2022-09-10T04:01:42.505Z,18.62
2022-09-10T04:04:10.371Z,18.55
2022-09-10T04:06:38.824Z,18.28
2022-09-10T04:09:06.470Z,18.55
2022-09-10T04:11:34.768Z,18.42
2022-09-10T04:14:03.075Z,18.50
2022-09-10T04:16:32.303Z,18.60
2022-09-10T04:19:03.405Z,18.56
2022-09-10T04:21:31.439Z,18.58
2022-09-10T04:24:00.521Z,18.61
2022-09-10T04:26:28.168Z,18.59
2022-09-10T04:28:56.093Z,18.59
2022-09-10T04:31:23.909Z,18.56
2022-09-10T04:33:51.592Z,18.58
2022-09-10T04:36:20.576Z,18.53
2022-09-10T04:38:48.297Z,18.47
2022-09-10T04:41:18.052Z,18.43
2022-09-10T04:43:45.992Z,18.47
2022-09-10T04:46:13.657Z,18.49
2022-09-10T04:48:41.394Z,18.55
2022-09-10T04:51:17.547Z,18.37
2022-09-10T04:53:47.226Z,18.47
2022-09-10T04:56:15.371Z,18.50
2022-09-10T04:58:44.064Z,18.20
2022-09-10T05:01:13.459Z,18.43
2022-09-10T05:03:41.553Z,18.39
2022-09-10T05:06:09.506Z,18.33
2022-09-10T05:08:37.360Z,18.23
2022-09-10T05:11:06.675Z,18.31
2022-09-10T05:13:34.360Z,18.21
2022-09-10T05:16:02.205Z,18.25
2022-09-10T05:18:30.000Z,18.34
2022-09-10T05:20:57.660Z,18.43
2022-09-10T05:23:25.523Z,18.41
2022-09-10T05:25:53.940Z,18.39
2022-09-10T05:28:22.901Z,18.26
2022-09-10T05:30:51.926Z,17.87
2022-09-10T05:33:19.731Z,17.95
2022-09-10T05:35:51.460Z,17.88
2022-09-10T05:38:19.423Z,18.04
2022-09-10T05:40:47.102Z,18.24
2022-09-10T05:43:14.751Z,18.24
2022-09-10T05:45:43.822Z,18.31
2022-09-10T05:48:11.487Z,18.32
2022-09-10T05:50:39.236Z,18.37
2022-09-10T05:53:06.927Z,18.44
2022-09-10T05:55:34.897Z,18.40
2022-09-10T05:58:05.355Z,18.47
2022-09-10T06:00:33.560Z,18.44
2022-09-10T06:03:03.664Z,18.48
2022-09-10T06:05:31.546Z,18.40
2022-09-10T06:07:59.195Z,18.39
2022-09-10T06:10:27.311Z,18.28
2022-09-10T06:12:54.968Z,18.29
2022-09-10T06:15:22.635Z,18.05
2022-09-10T06:17:50.366Z,18.02
2022-09-10T06:20:20.129Z,17.74
2022-09-10T06:22:47.751Z,17.99
2022-09-10T06:25:15.505Z,17.64
2022-09-10T06:27:43.154Z,17.93
2022-09-10T06:30:11.613Z,17.90
2022-09-10T06:32:40.050Z,18.07
2022-09-10T06:35:07.980Z,18.11
2022-09-10T06:37:36.944Z,18.18
2022-09-10T06:40:05.153Z,18.26
2022-09-10T06:42:33.040Z,18.25
2022-09-10T06:45:01.037Z,18.35
2022-09-10T06:50:17.468Z,18.32
2022-09-10T06:52:48.636Z,18.31
2022-09-10T06:55:16.336Z,18.08
2022-09-10T06:57:44.261Z,17.78
2022-09-10T07:00:14.088Z,18.10
2022-09-10T07:02:41.836Z,18.19
2022-09-10T07:05:09.711Z,18.36
2022-09-10T07:07:37.731Z,18.09
2022-09-10T07:10:07.635Z,18.07
2022-09-10T07:12:35.300Z,18.19
2022-09-10T07:15:04.989Z,18.08
2022-09-10T07:17:35.734Z,18.30
2022-09-10T07:20:05.190Z,18.26
2022-09-10T07:22:32.893Z,18.24
2022-09-10T07:25:00.560Z,18.27
2022-09-10T07:27:29.542Z,18.40
2022-09-10T07:29:57.219Z,18.44
2022-09-10T07:32:24.873Z,18.27
2022-09-10T07:34:55.785Z,18.25
2022-09-10T07:37:23.534Z,18.42
2022-09-10T07:39:51.266Z,18.43
2022-09-10T07:42:18.951Z,18.46
2022-09-10T07:44:47.976Z,18.42
2022-09-10T07:47:15.621Z,18.48
2022-09-10T07:49:44.561Z,18.55
2022-09-10T07:52:12.276Z,18.49
2022-09-10T07:54:39.953Z,18.45
2022-09-10T07:57:07.608Z,18.58
2022-09-10T07:59:35.263Z,18.47
2022-09-10T08:02:04.715Z,18.35
2022-09-10T08:04:36.574Z,18.43
2022-09-10T08:07:05.135Z,18.40
2022-09-10T08:09:33.251Z,18.55
2022-09-10T08:12:00.924Z,18.54
2022-09-10T08:14:29.859Z,18.57
2022-09-10T08:16:57.585Z,18.63
2022-09-10T08:19:26.555Z,18.58
2022-09-10T08:21:54.222Z,18.62
2022-09-10T08:24:22.144Z,18.78
2022-09-10T08:26:49.974Z,18.65
2022-09-10T08:29:17.629Z,18.80
2022-09-10T08:31:45.291Z,18.87
2022-09-10T08:34:13.664Z,18.58
2022-09-10T08:36:42.651Z,18.77
2022-09-10T08:39:10.543Z,18.87
2022-09-10T08:41:47.231Z,18.81
2022-09-10T08:44:20.575Z,18.86
2022-09-10T08:46:51.469Z,18.89
2022-09-10T08:49:25.224Z,18.89
2022-09-10T08:51:58.353Z,18.94
2022-09-10T08:54:29.082Z,19.01
2022-09-10T08:57:00.433Z,18.96
2022-09-10T08:59:32.462Z,18.99
2022-09-10T09:02:03.021Z,18.97
2022-09-10T09:04:37.656Z,18.99
2022-09-10T09:07:13.395Z,19.11
2022-09-10T09:09:41.251Z,19.10
2022-09-10T09:12:16.258Z,19.10
2022-09-10T09:14:53.178Z,19.16
2022-09-10T09:17:53.733Z,19.27
2022-09-10T09:20:29.503Z,19.21
2022-09-10T09:23:04.697Z,19.24
2022-09-10T09:25:34.565Z,19.25
2022-09-10T09:28:04.685Z,19.18
2022-09-10T09:30:35.428Z,19.15
2022-09-10T09:33:12.241Z,19.17
2022-09-10T09:35:44.355Z,19.27
2022-09-10T09:38:19.601Z,19.28
2022-09-10T09:40:48.791Z,19.27
2022-09-10T09:43:23.991Z,19.30
2022-09-10T09:45:53.747Z,19.42
2022-09-10T09:48:22.800Z,19.43
2022-09-10T09:50:53.328Z,19.54
2022-09-10T09:53:25.090Z,19.52
2022-09-10T09:55:54.661Z,19.51
2022-09-10T09:58:36.537Z,19.56
2022-09-10T10:01:14.424Z,19.59
2022-09-10T10:03:50.130Z,19.57
2022-09-10T10:06:21.025Z,19.55
2022-09-10T10:08:57.991Z,19.59
2022-09-10T10:11:41.749Z,19.44
2022-09-10T10:14:15.475Z,19.61
2022-09-10T10:16:43.212Z,19.73
2022-09-10T10:19:29.223Z,19.57
2022-09-10T10:21:58.168Z,19.66
2022-09-10T10:24:33.863Z,19.58
2022-09-10T10:27:02.985Z,19.53
2022-09-10T10:29:30.865Z,19.54
2022-09-10T10:32:05.494Z,19.52
2022-09-10T10:34:47.378Z,19.57
2022-09-10T10:37:18.301Z,19.60
2022-09-10T10:39:58.716Z,19.54
2022-09-10T10:42:30.724Z,19.58
2022-09-10T10:45:19.056Z,19.61
2022-09-10T10:47:49.602Z,19.66
2022-09-10T10:50:26.900Z,19.70
2022-09-10T10:53:12.312Z,19.84
2022-09-10T10:55:42.855Z,19.81
2022-09-10T10:58:18.773Z,19.71
2022-09-10T11:00:48.512Z,19.83
2022-09-10T11:03:21.166Z,19.76
2022-09-10T11:05:51.385Z,19.79
2022-09-10T11:08:23.199Z,19.83
2022-09-10T11:10:56.711Z,20.12
2022-09-10T11:13:27.224Z,20.18
2022-09-10T11:15:59.683Z,20.25
2022-09-10T11:18:33.269Z,20.22
2022-09-10T11:21:04.917Z,20.26
2022-09-10T11:23:35.997Z,20.47
2022-09-10T11:26:08.376Z,20.49
2022-09-10T11:28:39.498Z,20.70
2022-09-10T11:31:13.076Z,20.73
2022-09-10T11:33:47.081Z,20.62
2022-09-10T11:36:22.891Z,20.66
2022-09-10T11:38:57.349Z,20.55
2022-09-10T11:41:30.012Z,20.55
2022-09-10T11:44:05.615Z,20.83
2022-09-10T11:46:36.946Z,20.81
2022-09-10T11:49:07.788Z,20.94
2022-09-10T11:51:37.815Z,20.85
2022-09-10T11:54:07.821Z,20.95
2022-09-10T11:56:48.859Z,20.96
2022-09-10T11:59:27.296Z,20.98
2022-09-10T12:02:29.097Z,21.06
2022-09-10T12:05:00.095Z,20.81
2022-09-10T12:07:37.377Z,20.91
2022-09-10T12:10:14.586Z,20.95
2022-09-10T12:12:44.889Z,20.99
2022-09-10T12:15:19.739Z,21.03
2022-09-10T12:17:49.582Z,20.91
2022-09-10T12:20:20.442Z,20.80
2022-09-10T12:22:52.516Z,20.88
2022-09-10T12:25:33.212Z,20.74
2022-09-10T12:28:07.450Z,20.87
2022-09-10T12:31:03.410Z,20.91
2022-09-10T12:34:06.949Z,20.85
2022-09-10T12:37:14.516Z,20.91
2022-09-10T12:39:42.214Z,20.88
2022-09-10T12:42:37.459Z,20.72
2022-09-10T12:45:09.568Z,20.77
2022-09-10T12:47:50.230Z,20.81
2022-09-10T12:50:31.928Z,20.74
2022-09-10T12:53:38.915Z,20.61
2022-09-10T12:56:33.871Z,20.78
2022-09-10T12:59:14.068Z,20.74
2022-09-10T13:01:46.145Z,20.79
2022-09-10T13:04:24.240Z,20.84
2022-09-10T13:06:54.048Z,20.87
2022-09-10T13:09:24.233Z,20.74
2022-09-10T13:11:53.956Z,20.84
2022-09-10T13:14:24.596Z,20.83
2022-09-10T13:16:55.176Z,20.87
2022-09-10T13:19:48.783Z,20.75
2022-09-10T13:23:05.822Z,20.69
2022-09-10T13:25:36.838Z,20.86
2022-09-10T13:28:43.821Z,20.81
2022-09-10T13:31:18.233Z,20.88
2022-09-10T13:34:09.876Z,20.85
2022-09-10T13:36:43.819Z,20.92
2022-09-10T13:39:24.961Z,20.90
2022-09-10T13:42:03.817Z,21.00
2022-09-10T13:44:52.399Z,20.91
2022-09-10T13:47:25.509Z,20.90
2022-09-10T13:49:57.428Z,20.92
2022-09-10T13:52:29.972Z,21.03
2022-09-10T13:54:59.264Z,21.01
2022-09-10T13:57:29.393Z,21.02
2022-09-10T14:00:05.733Z,21.03
2022-09-10T14:02:45.329Z,21.01
2022-09-10T14:05:31.252Z,20.95
2022-09-10T14:08:05.036Z,20.94
2022-09-10T14:10:34.515Z,20.96
2022-09-10T14:13:03.542Z,20.93
2022-09-10T14:15:36.234Z,20.91
2022-09-10T14:18:04.167Z,20.83
2022-09-10T14:20:35.076Z,20.91
2022-09-10T14:23:05.052Z,20.90
2022-09-10T14:25:35.153Z,20.99
2022-09-10T14:28:17.412Z,20.93
2022-09-10T14:30:45.809Z,20.88
2022-09-10T14:33:25.280Z,20.94
2022-09-10T14:35:55.360Z,20.95
2022-09-10T14:38:27.268Z,20.92
2022-09-10T14:40:58.264Z,20.96
2022-09-10T14:43:31.497Z,20.88
2022-09-10T14:45:59.622Z,20.98
2022-09-10T14:48:35.224Z,20.90
2022-09-10T14:51:18.449Z,20.97
2022-09-10T14:53:50.384Z,20.96
2022-09-10T14:56:24.658Z,21.03
2022-09-10T14:58:57.848Z,21.05
2022-09-10T15:01:25.899Z,21.06
2022-09-10T15:03:53.827Z,20.97
2022-09-10T15:06:26.192Z,20.95
2022-09-10T15:08:55.843Z,20.96
2022-09-10T15:11:25.495Z,20.96
2022-09-10T15:13:55.669Z,20.99
2022-09-10T15:16:23.883Z,21.01
2022-09-10T15:18:51.544Z,21.11
2022-09-10T15:21:19.259Z,21.06
2022-09-10T15:23:48.430Z,21.06
2022-09-10T15:26:16.510Z,21.05
2022-09-10T15:28:44.656Z,20.90
2022-09-10T15:31:12.457Z,21.04
2022-09-10T15:33:40.423Z,21.06
2022-09-10T15:36:08.884Z,20.97
2022-09-10T15:38:36.541Z,21.03
2022-09-10T15:41:12.529Z,20.98
2022-09-10T15:43:42.737Z,20.95
2022-09-10T15:46:10.910Z,21.01
2022-09-10T15:48:39.027Z,20.98
2022-09-10T15:51:08.969Z,20.89
2022-09-10T15:53:36.812Z,20.93
2022-09-10T15:56:07.535Z,20.93
2022-09-10T15:58:37.547Z,20.96
2022-09-10T16:01:07.528Z,20.96
2022-09-10T16:03:35.557Z,20.81
2022-09-10T16:06:06.209Z,21.01
2022-09-10T16:08:34.316Z,20.74
2022-09-10T16:11:07.548Z,21.01
2022-09-10T16:13:39.588Z,21.04
2022-09-10T16:16:09.428Z,21.04
2022-09-10T16:18:38.294Z,20.75
2022-09-10T16:21:09.266Z,20.81
2022-09-10T16:23:37.839Z,20.92
2022-09-10T16:26:06.609Z,20.92
2022-09-10T16:28:35.757Z,20.73
2022-09-10T16:31:13.736Z,20.98
2022-09-10T16:33:41.548Z,20.91
2022-09-10T16:36:10.832Z,20.72
2022-09-10T16:38:38.518Z,20.92
2022-09-10T16:41:07.416Z,20.61
2022-09-10T16:43:37.277Z,20.65
2022-09-10T16:46:05.771Z,20.75
2022-09-10T16:48:34.660Z,20.91
2022-09-10T16:51:03.306Z,20.88
2022-09-10T16:53:31.248Z,20.96
2022-09-10T16:56:01.707Z,21.02
2022-09-10T16:58:35.238Z,21.04
2022-09-10T17:01:08.734Z,21.10
2022-09-10T17:03:36.971Z,21.16
2022-09-10T17:06:04.988Z,21.22
2022-09-10T17:08:34.449Z,21.27
2022-09-10T17:11:02.321Z,21.06
2022-09-10T17:13:30.384Z,20.97
2022-09-10T17:18:57.843Z,20.65
2022-09-10T17:21:26.413Z,20.52
2022-09-10T17:23:54.790Z,20.71
2022-09-10T17:26:24.058Z,20.66
2022-09-10T17:28:55.629Z,20.89
2022-09-10T17:31:23.650Z,21.07
2022-09-10T17:33:51.526Z,21.18
2022-09-10T17:36:20.794Z,21.17
2022-09-10T17:38:48.696Z,21.18
2022-09-10T17:41:16.460Z,21.15
2022-09-10T17:43:44.616Z,21.13
2022-09-10T17:46:17.659Z,20.93
2022-09-10T17:48:46.230Z,21.11
2022-09-10T17:51:15.262Z,21.02
2022-09-10T17:53:44.402Z,20.86
2022-09-10T17:56:14.327Z,20.88
2022-09-10T17:58:42.329Z,20.85
2022-09-10T18:01:13.103Z,20.88
2022-09-10T18:03:41.628Z,20.98
2022-09-10T18:06:11.131Z,20.92
2022-09-10T18:08:40.652Z,20.99
2022-09-10T18:11:12.084Z,21.08
2022-09-10T18:13:40.192Z,21.07
2022-09-10T18:16:09.118Z,21.00
2022-09-10T18:18:38.031Z,20.94
2022-09-10T18:21:16.564Z,20.86
2022-09-10T18:23:44.575Z,20.73
2022-09-10T18:26:15.454Z,20.65
2022-09-10T18:28:43.972Z,20.61
2022-09-10T18:31:12.627Z,20.74
2022-09-10T18:33:41.988Z,20.58
2022-09-10T18:36:14.911Z,20.68
2022-09-10T18:38:44.270Z,20.27
2022-09-10T18:41:22.557Z,20.32
2022-09-10T18:43:51.361Z,20.31
2022-09-10T18:46:23.566Z,20.56
2022-09-10T18:48:53.144Z,20.65
2022-09-10T18:51:24.743Z,20.69
2022-09-10T18:53:54.268Z,20.71
2022-09-10T18:56:25.389Z,20.55
2022-09-10T18:58:55.780Z,20.47
2022-09-10T19:01:24.879Z,20.32
2022-09-10T19:03:53.502Z,20.67
2022-09-10T19:06:24.760Z,20.69
2022-09-10T19:08:54.343Z,20.73
2022-09-10T19:11:26.126Z,20.78
2022-09-10T19:13:55.373Z,20.75
2022-09-10T19:16:25.382Z,20.77
2022-09-10T19:18:54.221Z,20.82
2022-09-10T19:21:22.719Z,20.82
2022-09-10T19:23:54.226Z,20.83
2022-09-10T19:26:26.255Z,20.77
2022-09-10T19:28:57.402Z,20.74
2022-09-10T19:31:26.917Z,20.73
2022-09-10T19:33:56.396Z,20.73
2022-09-10T19:36:27.532Z,20.74
2022-09-10T19:38:55.599Z,20.72
2022-09-10T19:41:25.567Z,20.66
2022-09-10T19:43:55.021Z,20.54
2022-09-10T19:46:24.933Z,20.55
2022-09-10T19:48:53.278Z,20.60
2022-09-10T19:51:22.504Z,20.70
2022-09-10T19:53:51.113Z,20.72
2022-09-10T19:56:20.870Z,20.69
2022-09-10T19:58:51.404Z,20.68
2022-09-10T20:01:20.546Z,20.68
2022-09-10T20:03:50.607Z,20.53
2022-09-10T20:06:20.442Z,20.54
2022-09-10T20:08:50.500Z,20.44
2022-09-10T20:11:20.136Z,20.59
2022-09-10T20:13:47.856Z,20.59
2022-09-10T20:16:18.188Z,20.15
2022-09-10T20:18:46.581Z,20.43
2022-09-10T20:21:16.337Z,20.28
2022-09-10T20:23:45.529Z,20.21
2022-09-10T20:26:15.829Z,20.11
2022-09-10T20:28:44.391Z,20.36
2022-09-10T20:31:13.535Z,20.47
2022-09-10T20:33:43.276Z,20.50
2022-09-10T20:36:12.641Z,20.33
2022-09-10T20:38:40.470Z,20.32
2022-09-10T20:41:08.477Z,20.48
2022-09-10T20:43:36.528Z,20.39
2022-09-10T20:46:05.026Z,20.02
2022-09-10T20:48:32.826Z,20.19
2022-09-10T20:51:02.875Z,20.05
2022-09-10T20:53:30.681Z,19.69
2022-09-10T20:56:06.211Z,19.85
2022-09-10T20:58:35.267Z,19.79
2022-09-10T21:01:08.686Z,19.67
2022-09-10T21:03:36.508Z,19.66
2022-09-10T21:06:05.885Z,19.38
2022-09-10T21:08:33.563Z,19.24
2022-09-10T21:11:05.471Z,19.19
2022-09-10T21:13:35.882Z,19.01
2022-09-10T21:16:10.099Z,19.16
2022-09-10T21:18:37.841Z,18.93
2022-09-10T21:21:08.353Z,19.15
2022-09-10T21:23:36.712Z,19.05
2022-09-10T21:26:05.448Z,19.29
2022-09-10T21:28:33.140Z,19.26
2022-09-10T21:31:04.932Z,19.30
2022-09-10T21:33:33.302Z,18.92
2022-09-10T21:36:06.678Z,19.04
2022-09-10T21:38:35.927Z,18.99
2022-09-10T21:41:10.139Z,19.33
2022-09-10T21:43:37.777Z,19.07
2022-09-10T21:46:08.436Z,19.09
2022-09-10T21:48:36.669Z,19.20
2022-09-10T21:51:07.541Z,18.88
2022-09-10T21:53:36.532Z,18.62
2022-09-10T21:56:05.319Z,18.46
2022-09-10T21:58:34.998Z,18.60
2022-09-10T22:01:05.903Z,18.75
2022-09-10T22:03:36.948Z,18.67
2022-09-10T22:06:06.649Z,18.40
2022-09-10T22:08:37.318Z,18.25
2022-09-10T22:11:07.306Z,18.42
2022-09-10T22:13:37.711Z,18.79
2022-09-10T22:16:06.149Z,18.68
2022-09-10T22:18:34.386Z,18.44
2022-09-10T22:21:06.672Z,18.79
2022-09-10T22:23:37.197Z,18.58
2022-09-10T22:26:05.616Z,18.84
2022-09-10T22:28:36.199Z,19.04
2022-09-10T22:31:08.662Z,18.45
2022-09-10T22:33:37.976Z,18.61
2022-09-10T22:36:12.731Z,18.60
2022-09-10T22:38:42.250Z,18.73
2022-09-10T22:41:10.567Z,18.73
2022-09-10T22:43:38.661Z,18.60
2022-09-10T22:46:07.656Z,18.78
2022-09-10T22:48:37.431Z,18.98
2022-09-10T22:51:06.500Z,18.83
2022-09-10T22:53:34.345Z,18.96
2022-09-10T22:56:04.561Z,18.91
2022-09-10T22:58:35.961Z,18.78
2022-09-10T23:01:06.049Z,18.73
2022-09-10T23:03:33.987Z,19.13
2022-09-10T23:06:06.180Z,18.75
2022-09-10T23:08:35.001Z,19.00
2022-09-10T23:11:15.163Z,19.09
2022-09-10T23:13:43.436Z,19.20
2022-09-10T23:16:13.535Z,18.89
2022-09-10T23:18:41.845Z,18.95
2022-09-10T23:21:09.958Z,18.86
2022-09-10T23:23:37.613Z,18.78
2022-09-10T23:26:07.220Z,18.79
2022-09-10T23:28:36.677Z,18.99
2022-09-10T23:31:13.977Z,19.16
2022-09-10T23:33:42.935Z,18.87
2022-09-10T23:36:11.648Z,18.62
2022-09-10T23:38:39.652Z,18.51
2022-09-10T23:41:08.473Z,18.28
2022-09-10T23:43:37.524Z,18.43
2022-09-10T23:46:05.463Z,18.57
2022-09-10T23:48:33.332Z,18.65
2022-09-10T23:51:03.405Z,18.64
2022-09-10T23:53:31.968Z,18.59
2022-09-10T23:56:00.162Z,18.79
2022-09-10T23:58:27.812Z,18.35
